createdAt,value
2018-07-06T00:03:07.934Z,86.63
2018-07-06T00:06:49.842Z,86.84
2018-07-06T00:10:31.697Z,88.46
2018-07-06T00:14:13.726Z,88.98
2018-07-06T00:17:55.544Z,88.74
2018-07-06T00:21:37.518Z,89.40
2018-07-06T00:25:19.648Z,89.72
2018-07-06T00:29:01.841Z,90.41
2018-07-06T00:32:43.725Z,91.46
2018-07-06T00:36:25.490Z,90.85
2018-07-06T00:40:07.393Z,91.17
2018-07-06T00:43:49.187Z,90.92
2018-07-06T00:47:31.166Z,91.93
2018-07-06T00:51:13.234Z,90.98
2018-07-06T00:54:55.484Z,91.06
2018-07-06T00:58:37.078Z,91.64
2018-07-06T01:02:19.010Z,91.68
2018-07-06T01:05:54.617Z,92.34
2018-07-06T01:09:36.465Z,91.21
2018-07-06T01:13:18.271Z,92.19
2018-07-06T01:17:00.123Z,91.80
2018-07-06T01:20:41.930Z,92.20
2018-07-06T01:24:24.006Z,93.90
2018-07-06T01:28:05.826Z,92.25
2018-07-06T01:31:47.754Z,92.04
2018-07-06T01:35:29.724Z,92.11
2018-07-06T01:39:11.589Z,93.32
2018-07-06T01:42:53.470Z,92.46
2018-07-06T01:46:35.002Z,92.75
2018-07-06T01:50:16.956Z,92.52
2018-07-06T01:53:59.025Z,92.17
2018-07-06T01:57:40.934Z,92.23
2018-07-06T02:01:22.789Z,92.35
2018-07-06T02:05:04.824Z,91.86
2018-07-06T02:08:46.722Z,91.91
2018-07-06T02:12:22.232Z,91.87
2018-07-06T02:16:04.476Z,91.63
2018-07-06T02:19:46.313Z,91.69
2018-07-06T02:23:28.056Z,90.10
2018-07-06T02:27:09.902Z,90.12
2018-07-06T02:30:51.866Z,89.79
2018-07-06T02:34:33.788Z,84.33
2018-07-06T02:38:09.457Z,89.39
2018-07-06T02:41:51.564Z,83.67
2018-07-06T02:45:33.481Z,82.38
2018-07-06T02:49:15.574Z,81.10
2018-07-06T02:52:51.264Z,80.83
2018-07-06T02:56:27.116Z,82.29
2018-07-06T03:00:08.842Z,79.37
2018-07-06T03:03:50.644Z,79.91
2018-07-06T03:07:32.450Z,78.99
2018-07-06T03:11:14.406Z,81.47
2018-07-06T03:14:56.454Z,80.62
2018-07-06T03:18:38.442Z,79.24
2018-07-06T03:22:20.453Z,78.97
2018-07-06T03:26:02.298Z,79.06
2018-07-06T03:29:44.276Z,78.16
2018-07-06T03:33:26.332Z,77.99
2018-07-06T03:37:08.359Z,77.99
2018-07-06T03:40:50.230Z,78.78
2018-07-06T03:44:25.968Z,78.41
2018-07-06T03:48:08.115Z,77.69
2018-07-06T03:51:50.030Z,77.92
2018-07-06T03:55:31.930Z,77.82
2018-07-06T03:59:14.037Z,78.02
2018-07-06T04:02:49.945Z,79.02
2018-07-06T04:06:31.782Z,79.88
2018-07-06T04:10:13.726Z,79.53
2018-07-06T04:13:56.478Z,80.00
2018-07-06T04:17:38.346Z,81.47
2018-07-06T04:21:20.136Z,82.61
2018-07-06T04:25:02.090Z,81.00
2018-07-06T04:28:37.883Z,81.75
2018-07-06T04:32:13.645Z,81.28
2018-07-06T04:35:55.451Z,80.92
2018-07-06T04:39:37.388Z,80.21
2018-07-06T04:43:19.215Z,80.55
2018-07-06T04:47:01.061Z,79.29
2018-07-06T04:50:43.210Z,79.01
2018-07-06T04:54:25.097Z,80.00
2018-07-06T04:58:07.022Z,79.84
2018-07-06T05:01:48.705Z,79.90
2018-07-06T05:05:30.432Z,81.84
2018-07-06T05:09:12.266Z,82.72
2018-07-06T05:12:54.375Z,82.40
2018-07-06T05:16:36.358Z,82.37
2018-07-06T05:20:18.226Z,83.23
2018-07-06T05:24:00.342Z,82.14
2018-07-06T05:27:42.030Z,83.12
2018-07-06T05:31:23.872Z,84.79
2018-07-06T05:34:59.601Z,83.99
2018-07-06T05:38:35.397Z,84.73
2018-07-06T05:42:17.395Z,84.83
2018-07-06T05:45:59.462Z,85.48
2018-07-06T05:49:41.391Z,85.29
2018-07-06T05:53:23.304Z,85.53
2018-07-06T05:57:05.334Z,85.52
2018-07-06T06:00:47.977Z,84.69
2018-07-06T06:04:30.071Z,86.50
2018-07-06T06:07:52.897Z,86.41
2018-07-06T06:11:17.506Z,85.51
2018-07-06T06:14:42.200Z,85.94
2018-07-06T06:18:07.400Z,84.55
2018-07-06T06:21:32.245Z,84.99
2018-07-06T06:24:57.148Z,84.60
2018-07-06T06:28:21.897Z,85.45
2018-07-06T06:31:46.700Z,85.03
2018-07-06T06:35:13.402Z,86.27
2018-07-06T06:38:38.287Z,86.11
2018-07-06T06:42:03.220Z,86.88
2018-07-06T06:45:28.049Z,86.63
2018-07-06T06:48:53.096Z,87.74
2018-07-06T06:52:18.144Z,85.63
2018-07-06T06:55:43.230Z,85.55
2018-07-06T06:59:07.988Z,83.35
2018-07-06T07:02:34.382Z,85.00
2018-07-06T07:05:59.379Z,84.01
2018-07-06T07:09:24.420Z,83.98
2018-07-06T07:12:48.882Z,87.35
2018-07-06T07:16:13.828Z,84.07
2018-07-06T07:19:38.731Z,84.74
2018-07-06T07:23:03.661Z,85.87
2018-07-06T07:26:28.539Z,83.11
2018-07-06T07:29:54.331Z,85.17
2018-07-06T07:33:19.171Z,85.43
2018-07-06T07:36:45.171Z,83.72
2018-07-06T07:40:10.051Z,84.21
2018-07-06T07:43:34.463Z,84.29
2018-07-06T07:46:59.327Z,84.27
2018-07-06T07:50:24.318Z,82.89
2018-07-06T07:54:06.183Z,83.16
2018-07-06T07:57:32.093Z,82.64
2018-07-06T08:00:57.055Z,81.28
2018-07-06T08:04:21.620Z,82.28
2018-07-06T08:07:46.441Z,81.18
2018-07-06T08:11:11.311Z,81.32
2018-07-06T08:14:36.111Z,81.58
2018-07-06T08:18:00.815Z,81.42
2018-07-06T08:21:25.519Z,79.07
2018-07-06T08:24:50.235Z,79.68
2018-07-06T08:28:15.120Z,81.15
2018-07-06T08:31:40.084Z,79.23
2018-07-06T08:35:21.818Z,79.84
2018-07-06T08:38:46.636Z,80.48
2018-07-06T08:42:11.500Z,80.17
2018-07-06T08:45:36.287Z,78.96
2018-07-06T08:49:02.041Z,79.40
2018-07-06T08:52:27.285Z,78.66
2018-07-06T08:55:52.021Z,79.70
2018-07-06T08:59:16.874Z,80.18
2018-07-06T09:02:41.336Z,79.80
2018-07-06T09:06:06.381Z,79.41
2018-07-06T09:09:31.257Z,80.39
2018-07-06T09:12:56.074Z,79.22
2018-07-06T09:16:20.932Z,79.63
2018-07-06T09:19:46.837Z,80.00
2018-07-06T09:23:11.542Z,80.72
2018-07-06T09:26:36.333Z,80.63
2018-07-06T09:30:01.129Z,79.14
2018-07-06T09:33:25.954Z,77.74
2018-07-06T09:36:50.403Z,78.89
2018-07-06T09:41:39.510Z,79.08
2018-07-06T09:45:04.341Z,75.97
2018-07-06T09:48:29.225Z,75.57
2018-07-06T09:51:54.205Z,77.21
2018-07-06T09:55:18.871Z,76.76
2018-07-06T09:58:43.517Z,77.51
2018-07-06T10:02:08.131Z,77.63
2018-07-06T10:05:32.881Z,77.64
2018-07-06T10:08:57.624Z,78.46
2018-07-06T10:12:22.301Z,77.21
2018-07-06T10:15:46.978Z,77.96
2018-07-06T10:19:11.740Z,78.03
2018-07-06T10:22:36.621Z,78.54
2018-07-06T10:26:01.439Z,78.84
2018-07-06T10:30:10.565Z,79.64
2018-07-06T10:33:35.444Z,80.12
2018-07-06T10:37:00.271Z,80.37
2018-07-06T10:40:25.156Z,80.19
2018-07-06T10:43:49.933Z,79.14
2018-07-06T10:47:14.839Z,78.82
2018-07-06T10:50:39.735Z,78.32
2018-07-06T10:54:06.027Z,78.85
2018-07-06T10:57:30.793Z,77.46
2018-07-06T11:00:55.085Z,76.95
2018-07-06T11:04:26.760Z,77.55
2018-07-06T11:07:51.714Z,78.71
2018-07-06T11:11:16.488Z,76.46
2018-07-06T11:14:41.383Z,76.15
2018-07-06T11:18:06.348Z,76.61
2018-07-06T11:21:31.445Z,76.33
2018-07-06T11:24:56.321Z,75.20
2018-07-06T11:28:21.217Z,75.83
2018-07-06T11:31:45.978Z,79.00
2018-07-06T11:35:12.098Z,79.45
2018-07-06T11:38:36.980Z,78.77
2018-07-06T11:42:01.444Z,79.75
2018-07-06T11:45:26.385Z,78.84
2018-07-06T11:48:52.260Z,78.94
2018-07-06T11:52:17.229Z,78.02
2018-07-06T11:55:43.207Z,79.88
2018-07-06T11:59:08.069Z,78.80
2018-07-06T12:02:33.063Z,79.85
2018-07-06T12:05:58.751Z,78.98
2018-07-06T12:09:24.474Z,81.50
2018-07-06T12:12:49.481Z,81.47
2018-07-06T12:16:14.369Z,82.77
2018-07-06T12:19:40.236Z,83.76
2018-07-06T12:23:05.213Z,83.54
2018-07-06T12:26:30.358Z,82.09
2018-07-06T12:29:55.333Z,82.56
2018-07-06T12:33:20.207Z,82.52
2018-07-06T12:36:45.408Z,82.44
2018-07-06T12:40:10.902Z,84.20
2018-07-06T12:43:36.010Z,85.91
2018-07-06T12:47:01.638Z,84.87
2018-07-06T12:50:27.302Z,85.44
2018-07-06T12:53:52.080Z,86.09
2018-07-06T12:57:16.848Z,84.97
2018-07-06T13:00:41.524Z,85.66
2018-07-06T13:04:06.497Z,85.83
2018-07-06T13:07:31.133Z,87.98
2018-07-06T13:10:55.869Z,87.23
2018-07-06T13:14:20.697Z,87.68
2018-07-06T13:17:48.321Z,86.02
2018-07-06T13:21:13.325Z,85.34
2018-07-06T13:24:38.162Z,84.21
2018-07-06T13:28:03.119Z,83.84
2018-07-06T13:31:28.066Z,83.57
2018-07-06T13:34:52.909Z,79.26
2018-07-06T13:38:17.931Z,82.50
2018-07-06T13:41:42.797Z,83.47
2018-07-06T13:45:07.729Z,83.53
2018-07-06T13:48:32.527Z,81.91
2018-07-06T13:51:57.421Z,81.65
2018-07-06T13:55:22.206Z,80.63
2018-07-06T13:58:47.006Z,81.28
2018-07-06T14:02:11.996Z,80.91
2018-07-06T14:05:36.682Z,82.02
2018-07-06T14:09:01.331Z,82.36
2018-07-06T14:12:26.039Z,79.89
2018-07-06T14:15:50.886Z,81.40
2018-07-06T14:19:15.898Z,79.94
2018-07-06T14:22:41.411Z,81.17
2018-07-06T14:26:06.198Z,81.55
2018-07-06T14:29:32.477Z,78.54
2018-07-06T14:32:57.500Z,78.34
2018-07-06T14:36:22.394Z,76.01
2018-07-06T14:39:46.887Z,78.97
2018-07-06T14:43:11.688Z,80.31
2018-07-06T14:46:36.502Z,78.59
2018-07-06T14:50:01.467Z,79.55
2018-07-06T14:53:27.415Z,81.72
2018-07-06T14:56:52.207Z,81.98
2018-07-06T15:00:16.589Z,81.60
2018-07-06T15:03:41.447Z,79.78
2018-07-06T15:07:06.292Z,78.53
2018-07-06T15:10:31.065Z,79.69
2018-07-06T15:13:55.439Z,77.37
2018-07-06T15:17:20.203Z,77.13
2018-07-06T15:20:45.049Z,76.63
2018-07-06T15:24:09.852Z,75.71
2018-07-06T15:27:34.674Z,75.83
2018-07-06T15:30:59.062Z,75.53
2018-07-06T15:34:23.794Z,74.37
2018-07-06T15:37:48.544Z,72.29
2018-07-06T15:41:13.269Z,71.62
2018-07-06T15:44:37.963Z,68.98
2018-07-06T15:48:02.676Z,68.81
2018-07-06T15:51:27.095Z,67.12
2018-07-06T15:54:51.880Z,66.63
2018-07-06T15:58:16.374Z,63.96
2018-07-06T16:01:40.902Z,61.57
2018-07-06T16:05:05.809Z,61.98
2018-07-06T16:08:30.520Z,61.18
2018-07-06T16:11:55.080Z,60.77
2018-07-06T16:15:19.743Z,61.22
2018-07-06T16:18:44.385Z,58.33
2018-07-06T16:23:33.497Z,60.81
2018-07-06T16:26:58.178Z,61.51
2018-07-06T16:30:22.560Z,59.70
2018-07-06T16:33:46.942Z,60.68
2018-07-06T16:37:11.342Z,60.65
2018-07-06T16:40:36.622Z,62.41
2018-07-06T16:44:01.368Z,63.59
2018-07-06T16:47:26.185Z,61.61
2018-07-06T16:50:51.050Z,61.17
2018-07-06T16:54:15.507Z,60.37
2018-07-06T16:57:42.520Z,60.23
2018-07-06T17:01:07.480Z,59.63
2018-07-06T17:04:32.143Z,56.61
2018-07-06T17:07:57.617Z,57.51
2018-07-06T17:11:22.637Z,57.32
2018-07-06T17:14:47.177Z,54.15
2018-07-06T17:18:12.963Z,57.14
2018-07-06T17:21:38.565Z,56.06
2018-07-06T17:25:03.388Z,55.68
2018-07-06T17:28:27.841Z,56.38
2018-07-06T17:31:52.610Z,54.71
2018-07-06T17:35:18.127Z,56.22
2018-07-06T17:38:43.925Z,56.24
2018-07-06T17:42:09.174Z,57.43
2018-07-06T17:45:33.962Z,57.47
2018-07-06T17:48:58.783Z,57.01
2018-07-06T17:52:24.468Z,56.65
2018-07-06T17:55:49.226Z,57.18
2018-07-06T17:59:13.913Z,57.03
2018-07-06T18:02:38.615Z,56.33
2018-07-06T18:06:03.400Z,58.01
2018-07-06T18:09:28.075Z,57.94
2018-07-06T18:12:52.427Z,57.94
2018-07-06T18:16:18.603Z,57.97
2018-07-06T18:19:44.322Z,61.39
2018-07-06T18:23:09.121Z,62.58
2018-07-06T18:26:33.816Z,64.93
2018-07-06T18:29:58.482Z,64.92
2018-07-06T18:33:23.241Z,66.32
2018-07-06T18:36:47.994Z,66.63
2018-07-06T18:40:12.720Z,67.59
2018-07-06T18:43:37.466Z,67.38
2018-07-06T18:47:02.147Z,67.14
2018-07-06T18:50:26.872Z,67.33
2018-07-06T18:53:51.632Z,68.56
2018-07-06T18:57:16.476Z,70.15
2018-07-06T19:00:40.895Z,69.47
2018-07-06T19:04:06.009Z,70.87
2018-07-06T19:07:30.910Z,71.22
2018-07-06T19:10:55.756Z,70.82
2018-07-06T19:14:20.547Z,68.64
2018-07-06T19:17:45.359Z,71.63
2018-07-06T19:21:10.164Z,71.61
2018-07-06T19:24:34.890Z,72.32
2018-07-06T19:27:59.560Z,73.84
2018-07-06T19:31:24.433Z,72.12
2018-07-06T19:34:49.109Z,73.42
2018-07-06T19:38:13.866Z,74.90
2018-07-06T19:41:38.579Z,73.92
2018-07-06T19:45:03.451Z,75.54
2018-07-06T19:48:28.240Z,76.60
2018-07-06T19:51:52.661Z,77.53
2018-07-06T19:55:17.621Z,78.33
2018-07-06T19:58:42.334Z,78.54
2018-07-06T20:02:07.279Z,79.05
2018-07-06T20:05:31.962Z,78.71
2018-07-06T20:08:56.665Z,78.35
2018-07-06T20:12:21.467Z,78.94
2018-07-06T20:15:46.273Z,79.18
2018-07-06T20:19:11.040Z,80.16
2018-07-06T20:22:35.700Z,78.65
2018-07-06T20:26:00.394Z,80.65
2018-07-06T20:29:25.079Z,80.15
2018-07-06T20:32:49.870Z,80.18
2018-07-06T20:36:14.645Z,81.06
2018-07-06T20:39:39.510Z,80.86
2018-07-06T20:43:04.170Z,81.38
2018-07-06T20:46:29.009Z,82.02
2018-07-06T20:49:53.649Z,82.07
2018-07-06T20:53:19.380Z,81.69
2018-07-06T20:56:44.109Z,81.29
2018-07-06T21:00:08.453Z,82.59
2018-07-06T21:03:32.855Z,82.03
2018-07-06T21:06:57.714Z,82.97
2018-07-06T21:10:22.563Z,84.01
2018-07-06T21:13:47.245Z,83.50
2018-07-06T21:17:11.906Z,82.88
2018-07-06T21:20:36.672Z,83.26
2018-07-06T21:24:01.371Z,83.59
2018-07-06T21:27:26.094Z,83.22
2018-07-06T21:30:50.853Z,83.11
2018-07-06T21:34:15.525Z,82.97
2018-07-06T21:37:40.727Z,82.72
2018-07-06T21:41:06.472Z,82.59
2018-07-06T21:44:31.128Z,83.98
2018-07-06T21:47:55.791Z,84.93
2018-07-06T21:51:20.510Z,84.63
2018-07-06T21:54:45.174Z,85.02
2018-07-06T21:58:09.610Z,85.00
2018-07-06T22:01:34.295Z,86.44
2018-07-06T22:04:58.956Z,84.83
2018-07-06T22:08:23.717Z,84.57
2018-07-06T22:11:49.115Z,84.60
2018-07-06T22:15:13.817Z,86.46
2018-07-06T22:18:38.547Z,86.36
2018-07-06T22:22:03.268Z,85.48
2018-07-06T22:25:27.981Z,84.73
2018-07-06T22:28:52.667Z,84.77
2018-07-06T22:32:17.357Z,85.88
2018-07-06T22:35:42.162Z,83.69
2018-07-06T22:39:08.405Z,84.16
2018-07-06T22:42:33.107Z,84.78
2018-07-06T22:45:58.855Z,83.95
2018-07-06T22:49:23.738Z,85.72
2018-07-06T22:52:48.603Z,85.74
2018-07-06T22:56:13.491Z,84.55
2018-07-06T22:59:38.397Z,84.96
2018-07-06T23:03:04.941Z,85.08
2018-07-06T23:06:29.627Z,84.31
2018-07-06T23:09:54.713Z,85.84
2018-07-06T23:13:19.435Z,85.46
2018-07-06T23:16:44.115Z,84.82
2018-07-06T23:20:08.874Z,85.09
2018-07-06T23:23:33.542Z,87.08
2018-07-06T23:26:58.210Z,87.13
2018-07-06T23:30:23.846Z,86.09
2018-07-06T23:33:48.508Z,86.51
2018-07-06T23:37:13.169Z,87.06
2018-07-06T23:40:37.872Z,87.74
2018-07-06T23:44:02.609Z,87.52
2018-07-06T23:47:27.269Z,86.43
2018-07-06T23:50:51.980Z,87.73
2018-07-06T23:54:16.902Z,87.12
2018-07-06T23:57:41.865Z,86.40
